Time;durP1;ratioP1;P1;durP2;ratioP2;P2;SDS_P1;SDS_P2;PMS_P1;PMS_P2;Temp;Humidity;BMP_temperature;BMP_pressure;BME280_temperature;BME280_humidity;BME280_pressure;Samples;Min_cycle;Max_cycle;Signal;HPM_P1;HPM_P2
2022/05/02 00:00:32;;;;;;;10.38;9.07;;;12.90;56.90;;;;;;5010990;28;20099;-52
2022/05/02 00:02:59;;;;;;;10.00;8.98;;;12.90;56.90;;;;;;5009730;28;20069;-55
2022/05/02 00:05:27;;;;;;;11.25;10.05;;;12.90;57.00;;;;;;5009106;28;20046;-55
2022/05/02 00:08:03;;;;;;;10.70;9.63;;;12.90;57.10;;;;;;5008658;28;20066;-56
2022/05/02 00:10:34;;;;;;;11.40;9.60;;;12.90;57.20;;;;;;5011255;28;20046;-52
2022/05/02 00:13:03;;;;;;;10.20;9.15;;;12.90;57.30;;;;;;5009865;28;20045;-55
2022/05/02 00:15:38;;;;;;;11.63;9.73;;;12.90;57.50;;;;;;5003040;28;20061;-51
2022/05/02 00:18:08;;;;;;;13.13;9.88;;;12.90;57.60;;;;;;5009949;28;20045;-51
2022/05/02 00:20:39;;;;;;;10.73;8.73;;;12.90;57.60;;;;;;5007659;28;20446;-51
2022/05/02 00:23:09;;;;;;;9.73;8.73;;;12.90;57.60;;;;;;5008843;28;20045;-52
2022/05/02 00:25:39;;;;;;;10.02;9.00;;;12.90;57.70;;;;;;5008930;28;20034;-53
2022/05/02 00:28:19;;;;;;;9.90;8.85;;;12.90;57.60;;;;;;5007317;28;20038;-54
2022/05/02 00:30:50;;;;;;;9.48;8.48;;;12.90;57.90;;;;;;4990506;28;20049;-53
2022/05/02 00:33:20;;;;;;;9.15;8.25;;;12.90;57.70;;;;;;4999903;28;20033;-52
2022/05/02 00:35:46;;;;;;;11.32;9.98;;;12.90;57.50;;;;;;5009469;28;20069;-56
2022/05/02 00:38:22;;;;;;;10.98;9.63;;;12.90;57.50;;;;;;5008060;28;20042;-55
2022/05/02 00:40:52;;;;;;;11.73;10.07;;;12.90;57.50;;;;;;5010424;28;20147;-53
2022/05/02 00:43:21;;;;;;;10.38;9.23;;;12.80;57.50;;;;;;5008620;28;20049;-51
2022/05/02 00:45:51;;;;;;;11.40;9.80;;;12.80;57.40;;;;;;5009660;28;20081;-53
2022/05/02 00:48:18;;;;;;;11.38;9.25;;;12.80;57.80;;;;;;5009852;28;20390;-52
2022/05/02 00:50:55;;;;;;;11.43;10.02;;;12.80;57.60;;;;;;5009900;28;20084;-53
2022/05/02 00:53:24;;;;;;;10.65;9.35;;;12.80;57.60;;;;;;5007504;28;20597;-53
2022/05/02 00:55:54;;;;;;;12.85;10.35;;;12.80;57.90;;;;;;5008563;28;20107;-54
2022/05/02 00:58:21;;;;;;;12.48;10.90;;;12.80;57.90;;;;;;5009024;28;20038;-53
2022/05/02 01:00:49;;;;;;;11.05;9.50;;;12.70;57.60;;;;;;5009961;28;20220;-53
2022/05/02 01:03:19;;;;;;;9.95;8.90;;;12.80;57.60;;;;;;5008273;28;20084;-50
2022/05/02 01:08:38;;;;;;;11.15;8.82;;;12.70;57.60;;;;;;4992796;28;20405;-52
2022/05/02 01:11:08;;;;;;;10.90;9.45;;;12.70;57.50;;;;;;5009460;28;20053;-51
2022/05/02 01:13:40;;;;;;;13.13;11.75;;;12.60;57.40;;;;;;5039811;22;20037;-49
2022/05/02 01:16:24;;;;;;;15.20;11.60;;;12.60;57.60;;;;;;5043762;28;20572;-52
2022/05/02 01:18:59;;;;;;;13.73;10.23;;;12.60;58.00;;;;;;5029737;28;20088;-49
2022/05/02 01:21:29;;;;;;;11.82;10.63;;;12.50;57.30;;;;;;5029318;28;20041;-51
2022/05/02 01:24:03;;;;;;;11.75;9.48;;;12.50;57.60;;;;;;5036490;28;20076;-51
2022/05/02 01:26:34;;;;;;;12.88;10.45;;;12.40;57.60;;;;;;5008621;28;20038;-51
2022/05/02 01:29:06;;;;;;;12.00;10.35;;;12.40;57.20;;;;;;5012885;28;20140;-52
2022/05/02 01:31:37;;;;;;;11.57;10.02;;;12.30;57.30;;;;;;5001821;28;20048;-52
2022/05/02 01:34:04;;;;;;;11.27;10.05;;;12.30;57.30;;;;;;5040606;28;20037;-52
2022/05/02 01:36:33;;;;;;;11.07;9.95;;;12.30;57.30;;;;;;5038421;28;20049;-51
2022/05/02 01:39:07;;;;;;;12.13;10.70;;;12.20;57.30;;;;;;5033195;28;20044;-51
2022/05/02 01:41:35;;;;;;;11.02;9.90;;;12.10;57.30;;;;;;5040128;28;20044;-52
2022/05/02 01:44:06;;;;;;;11.13;9.82;;;12.10;57.30;;;;;;5040010;28;20230;-51
2022/05/02 01:46:37;;;;;;;13.18;10.57;;;12.00;57.20;;;;;;5013003;28;20460;-51
2022/05/02 01:49:04;;;;;;;11.40;10.25;;;12.00;57.40;;;;;;5018836;28;20136;-47
2022/05/02 01:51:33;;;;;;;13.73;11.50;;;11.90;57.50;;;;;;5027530;28;20033;-52
2022/05/02 01:54:07;;;;;;;12.70;11.40;;;11.90;57.70;;;;;;5044246;28;20128;-48
2022/05/02 01:56:34;;;;;;;12.82;11.18;;;11.90;57.70;;;;;;5051490;28;20045;-51
2022/05/02 01:59:04;;;;;;;14.32;12.55;;;11.80;57.70;;;;;;5035997;28;20069;-52
2022/05/02 02:01:33;;;;;;;14.90;11.35;;;11.80;57.80;;;;;;5042880;28;20492;-52
2022/05/02 02:06:51;;;;;;;15.00;11.80;;;11.70;57.80;;;;;;5014416;28;20468;-50
2022/05/02 02:09:18;;;;;;;13.90;11.80;;;11.70;57.60;;;;;;5037932;28;20041;-49
2022/05/02 02:11:45;;;;;;;15.63;12.48;;;11.60;57.60;;;;;;5043686;28;20041;-50
2022/05/02 02:14:18;;;;;;;14.18;12.65;;;11.60;57.70;;;;;;5050120;28;20052;-49
2022/05/02 02:16:44;;;;;;;14.10;12.57;;;11.50;57.60;;;;;;5038086;28;20045;-47
2022/05/02 02:19:14;;;;;;;14.05;11.65;;;11.50;57.60;;;;;;5043838;28;20045;-52
2022/05/02 02:21:43;;;;;;;13.85;12.40;;;11.50;57.50;;;;;;5030782;28;20041;-52
2022/05/02 02:24:15;;;;;;;14.10;12.13;;;11.40;57.50;;;;;;5032675;28;20048;-48
2022/05/02 02:26:43;;;;;;;13.30;11.93;;;11.40;57.50;;;;;;5039296;28;20497;-50
2022/05/02 02:29:10;;;;;;;15.05;11.95;;;11.30;57.60;;;;;;5035522;28;20072;-51
2022/05/02 02:31:39;;;;;;;14.80;12.70;;;11.30;57.70;;;;;;5041369;28;20040;-51
2022/05/02 02:34:08;;;;;;;15.05;12.70;;;11.30;57.70;;;;;;5047811;28;20033;-52
2022/05/02 02:36:34;;;;;;;13.38;11.48;;;11.20;57.70;;;;;;5033191;28;20112;-48
2022/05/02 02:39:06;;;;;;;13.43;11.13;;;11.20;57.60;;;;;;5041903;28;20045;-49
2022/05/02 02:41:35;;;;;;;11.57;10.32;;;11.20;57.60;;;;;;5051303;28;20041;-48
2022/05/02 02:44:04;;;;;;;12.57;11.05;;;11.10;57.50;;;;;;5040481;28;20450;-48
2022/05/02 02:46:31;;;;;;;13.63;11.10;;;11.10;57.50;;;;;;5033358;28;20068;-52
2022/05/02 02:48:57;;;;;;;12.85;11.52;;;11.00;57.40;;;;;;5043482;28;20091;-46
2022/05/02 02:51:24;;;;;;;12.48;10.85;;;11.00;57.50;;;;;;5050621;28;20067;-51
2022/05/02 02:53:51;;;;;;;13.10;11.48;;;10.90;57.40;;;;;;5044227;28;20042;-50
2022/05/02 02:56:18;;;;;;;14.27;12.13;;;10.90;57.50;;;;;;5044394;28;20052;-48
2022/05/02 02:58:47;;;;;;;14.27;11.75;;;10.80;57.40;;;;;;5043835;28;20102;-48
2022/05/02 03:01:14;;;;;;;14.60;12.18;;;10.80;57.70;;;;;;5052408;28;20045;-50
2022/05/02 03:03:41;;;;;;;14.35;12.85;;;10.80;58.00;;;;;;5041316;28;20504;-48
2022/05/02 03:06:08;;;;;;;14.23;12.20;;;10.70;58.10;;;;;;5037224;28;20068;-48
2022/05/02 03:08:40;;;;;;;15.10;12.45;;;10.70;58.10;;;;;;5042130;28;20441;-52
2022/05/02 03:11:07;;;;;;;13.65;11.93;;;10.70;58.10;;;;;;5019016;28;20129;-50
2022/05/02 03:13:37;;;;;;;14.35;12.10;;;10.70;58.00;;;;;;5014745;28;20127;-51
2022/05/02 03:16:04;;;;;;;16.33;13.07;;;10.70;58.10;;;;;;5037675;28;20433;-49
2022/05/02 03:18:31;;;;;;;15.48;12.35;;;10.60;58.10;;;;;;5042055;28;20454;-51
2022/05/02 03:21:00;;;;;;;12.73;11.00;;;10.60;58.00;;;;;;5032256;28;20045;-52
2022/05/02 03:23:28;;;;;;;13.65;11.65;;;10.60;58.00;;;;;;5027932;28;20045;-49
2022/05/02 03:25:58;;;;;;;13.68;12.02;;;10.50;58.00;;;;;;5041867;28;20045;-52
2022/05/02 03:28:25;;;;;;;14.18;11.45;;;10.50;58.10;;;;;;5042870;28;20480;-52
2022/05/02 03:30:54;;;;;;;12.68;10.63;;;10.50;57.90;;;;;;5049016;28;20866;-53
2022/05/02 03:33:20;;;;;;;15.25;11.40;;;10.50;57.90;;;;;;5035820;28;20046;-53
2022/05/02 03:35:52;;;;;;;12.90;10.52;;;10.40;57.90;;;;;;5043410;28;20500;-51
2022/05/02 03:38:20;;;;;;;12.73;11.20;;;10.40;57.80;;;;;;5032972;28;20053;-52
2022/05/02 03:40:46;;;;;;;13.27;10.95;;;10.40;57.90;;;;;;5030552;28;20494;-51
2022/05/02 03:43:17;;;;;;;12.52;10.30;;;10.30;58.00;;;;;;5032260;28;20069;-51
2022/05/02 03:45:44;;;;;;;12.52;11.02;;;10.30;57.90;;;;;;5038999;28;20037;-49
2022/05/02 03:48:10;;;;;;;11.80;9.85;;;10.30;57.90;;;;;;5045627;28;20055;-53
2022/05/02 03:50:40;;;;;;;11.65;10.43;;;10.20;57.80;;;;;;5033304;28;20067;-50
2022/05/02 03:53:09;;;;;;;13.05;10.93;;;10.20;57.90;;;;;;5040715;28;20421;-52
2022/05/02 03:55:39;;;;;;;12.65;10.80;;;10.20;57.90;;;;;;5038463;28;20048;-53
2022/05/02 03:58:08;;;;;;;13.80;11.10;;;10.10;57.80;;;;;;5029656;28;20848;-51
2022/05/02 04:00:37;;;;;;;14.05;10.48;;;10.10;57.80;;;;;;5037336;28;20155;-52
2022/05/02 04:03:04;;;;;;;12.48;10.90;;;10.10;57.90;;;;;;5047156;28;20475;-52
2022/05/02 04:05:31;;;;;;;15.55;11.32;;;10.00;57.90;;;;;;5041845;28;20041;-51
2022/05/02 04:07:58;;;;;;;15.30;11.40;;;10.00;58.00;;;;;;5050062;28;20033;-51
2022/05/02 04:10:24;;;;;;;13.50;11.65;;;10.00;58.20;;;;;;5023987;28;20524;-52
2022/05/02 04:12:54;;;;;;;13.38;11.82;;;10.00;58.30;;;;;;5041738;28;20067;-48
2022/05/02 04:15:22;;;;;;;14.18;10.52;;;9.90;58.30;;;;;;5045737;28;20075;-51
2022/05/02 04:17:51;;;;;;;11.10;9.80;;;9.90;58.40;;;;;;5029254;28;20045;-50
2022/05/02 04:20:18;;;;;;;12.40;10.88;;;9.90;58.30;;;;;;5033950;28;20456;-51
2022/05/02 04:22:46;;;;;;;12.40;10.13;;;9.90;58.40;;;;;;5035250;28;20496;-49
2022/05/02 04:25:13;;;;;;;12.13;10.50;;;9.80;58.40;;;;;;5033155;28;20051;-50
2022/05/02 04:27:39;;;;;;;11.48;10.07;;;9.80;58.50;;;;;;5033178;28;20072;-52
2022/05/02 04:30:07;;;;;;;12.93;10.65;;;9.80;58.60;;;;;;5039956;28;20048;-51
2022/05/02 04:32:36;;;;;;;12.48;10.43;;;9.80;58.70;;;;;;5034003;28;20048;-50
2022/05/02 04:35:05;;;;;;;12.43;10.70;;;9.80;58.70;;;;;;5050024;28;20049;-51
2022/05/02 04:37:32;;;;;;;13.43;11.60;;;9.80;58.80;;;;;;5041347;28;20095;-47
2022/05/02 04:39:58;;;;;;;14.00;11.93;;;9.80;59.00;;;;;;5036479;28;20497;-53
2022/05/02 04:42:26;;;;;;;14.02;11.50;;;9.80;59.10;;;;;;5040062;28;20037;-54
2022/05/02 04:44:56;;;;;;;11.77;10.48;;;9.80;59.10;;;;;;5039889;28;20037;-51
2022/05/02 04:47:23;;;;;;;14.82;10.85;;;9.80;59.20;;;;;;5028994;28;20091;-50
2022/05/02 04:50:03;;;;;;;12.43;10.88;;;9.80;59.30;;;;;;5028372;28;20041;-50
2022/05/02 04:52:31;;;;;;;13.20;10.80;;;9.80;59.40;;;;;;5031070;28;20045;-51
2022/05/02 04:54:58;;;;;;;13.23;10.80;;;9.80;59.40;;;;;;5031749;28;20049;-51
2022/05/02 04:57:25;;;;;;;15.95;12.30;;;9.80;59.50;;;;;;5034002;28;20049;-53
2022/05/02 04:59:53;;;;;;;14.68;11.52;;;9.90;59.70;;;;;;5038198;28;20111;-52
2022/05/02 05:02:20;;;;;;;15.98;11.60;;;9.90;59.90;;;;;;5042060;28;20044;-53
2022/05/02 05:04:47;;;;;;;13.80;11.23;;;9.90;60.00;;;;;;5047308;28;20037;-53
2022/05/02 05:07:17;;;;;;;17.48;12.75;;;9.90;60.10;;;;;;5028759;28;20033;-51
2022/05/02 05:09:44;;;;;;;16.80;13.45;;;10.00;60.30;;;;;;5025278;28;20033;-49
2022/05/02 05:12:37;;;;;;;13.88;12.15;;;10.00;60.40;;;;;;5014750;28;20096;-52
2022/05/02 05:18:47;;;;;;;14.80;10.80;;;10.10;61.80;;;;;;5002247;28;20052;-54
2022/05/02 05:21:33;;;;;;;18.23;12.75;;;10.10;61.80;;;;;;5025659;28;20107;-50
2022/05/02 05:24:20;;;;;;;14.88;12.48;;;10.20;60.80;;;;;;5027858;28;20436;-53
2022/05/02 05:27:06;;;;;;;16.40;13.38;;;10.20;62.00;;;;;;5038784;28;20090;-50
2022/05/02 05:29:50;;;;;;;16.73;13.73;;;10.30;62.10;;;;;;5029949;28;20041;-51
2022/05/02 05:32:28;;;;;;;20.20;15.32;;;10.30;62.00;;;;;;5036831;28;20045;-55
2022/05/02 05:35:05;;;;;;;18.48;15.07;;;10.40;62.80;;;;;;5027916;28;20103;-54
2022/05/02 05:38:12;;;;;;;22.10;14.68;;;10.40;62.90;;;;;;5030335;28;20053;-52
2022/05/02 05:40:42;;;;;;;21.15;16.23;;;10.50;63.50;;;;;;5026284;28;20103;-55
2022/05/02 05:43:24;;;;;;;18.45;15.48;;;10.60;62.60;;;;;;5027432;28;20095;-53
2022/05/02 05:46:13;;;;;;;21.75;16.60;;;10.70;63.40;;;;;;5036693;28;20049;-52
2022/05/02 05:48:43;;;;;;;18.25;15.10;;;10.80;63.70;;;;;;5015839;28;20052;-53
2022/05/02 05:51:38;;;;;;;18.88;16.08;;;10.90;62.80;;;;;;5042297;28;20751;-53
2022/05/02 05:54:58;;;;;;;19.23;15.30;;;10.90;63.60;;;;;;5031202;28;20045;-54
2022/05/02 05:57:51;;;;;;;18.00;14.80;;;11.10;63.80;;;;;;4939773;28;20106;-53
2022/05/02 06:00:18;;;;;;;19.25;13.88;;;11.20;63.10;;;;;;5027799;28;20077;-55
2022/05/02 06:03:15;;;;;;;18.70;14.10;;;11.30;62.10;;;;;;5023358;28;20032;-54
2022/05/02 06:05:46;;;;;;;19.65;15.25;;;11.40;63.40;;;;;;5032272;28;20099;-50
2022/05/02 06:08:19;;;;;;;19.70;14.18;;;11.40;62.10;;;;;;5031760;28;20505;-53
2022/05/02 06:10:49;;;;;;;17.23;14.93;;;11.50;62.30;;;;;;5041156;28;20543;-51
2022/05/02 06:13:19;;;;;;;22.20;15.82;;;11.60;61.90;;;;;;5015392;28;20497;-53
2022/05/02 06:18:57;;;;;;;16.70;14.60;;;11.70;61.70;;;;;;5029247;28;20042;-52
2022/05/02 06:21:27;;;;;;;21.38;15.23;;;11.80;61.60;;;;;;5028065;28;20037;-55
2022/05/02 06:23:59;;;;;;;18.75;14.00;;;11.90;61.60;;;;;;5040945;28;20083;-50
2022/05/02 06:26:28;;;;;;;18.23;14.27;;;11.90;61.50;;;;;;5050893;28;20125;-52
2022/05/02 06:28:56;;;;;;;18.20;14.98;;;12.00;61.40;;;;;;5036451;28;20041;-49
2022/05/02 06:31:26;;;;;;;17.27;14.35;;;12.10;61.40;;;;;;5031276;28;20473;-52
2022/05/02 06:33:56;;;;;;;19.17;14.52;;;12.10;61.20;;;;;;5042802;28;20068;-51
2022/05/02 06:36:50;;;;;;;18.13;14.90;;;12.20;61.10;;;;;;5033026;28;20049;-51
2022/05/02 06:39:43;;;;;;;19.38;14.30;;;12.30;61.50;;;;;;5032108;28;20033;-52
2022/05/02 06:42:36;;;;;;;20.25;14.57;;;12.30;61.00;;;;;;5045567;28;20063;-52
2022/05/02 06:45:16;;;;;;;;;;;12.40;60.80;;;;;;5039749;28;20116;-50
2022/05/02 06:48:20;;;;;;;15.90;11.93;;;12.50;60.80;;;;;;5025523;28;19925;-51
2022/05/02 06:51:06;;;;;;;18.05;13.38;;;12.60;60.30;;;;;;5038288;28;20029;-53
2022/05/02 06:54:08;;;;;;;15.95;12.60;;;12.60;60.10;;;;;;5039374;28;20449;-54
2022/05/02 06:56:57;;;;;;;16.40;11.13;;;12.70;60.10;;;;;;5029369;28;20073;-49
2022/05/02 07:00:00;;;;;;;14.25;11.13;;;12.80;59.70;;;;;;5034473;28;20611;-51
2022/05/02 07:02:48;;;;;;;14.60;11.95;;;12.80;60.10;;;;;;5038713;28;20048;-51
2022/05/02 07:05:30;;;;;;;14.48;11.48;;;12.90;59.60;;;;;;5013359;28;20048;-50
2022/05/02 07:08:09;;;;;;;14.50;11.80;;;13.00;59.60;;;;;;5006533;28;20056;-52
2022/05/02 07:10:38;;;;;;;15.13;11.88;;;13.00;59.10;;;;;;5037044;28;20554;-51
2022/05/02 07:13:23;;;;;;;14.70;12.15;;;13.10;59.20;;;;;;5035112;28;20057;-53
2022/05/02 07:16:09;;;;;;;15.43;11.75;;;13.10;59.40;;;;;;5021195;28;20101;-50
2022/05/02 07:18:39;;;;;;;12.15;10.63;;;13.20;58.90;;;;;;5030581;28;20045;-53
2022/05/02 07:21:15;;;;;;;13.75;11.85;;;13.20;58.80;;;;;;5031181;28;20092;-53
2022/05/02 07:23:51;;;;;;;15.52;12.00;;;13.30;59.30;;;;;;5011221;28;20421;-54
2022/05/02 07:26:21;;;;;;;18.17;11.50;;;13.40;59.00;;;;;;5031454;28;20045;-54
2022/05/02 07:28:50;;;;;;;16.15;11.38;;;13.50;58.70;;;;;;5034262;28;20033;-53
2022/05/02 07:31:43;;;;;;;14.18;11.73;;;13.50;58.60;;;;;;5038331;28;20123;-51
2022/05/02 07:34:16;;;;;;;15.02;11.07;;;13.60;58.70;;;;;;5016218;28;20585;-53
2022/05/02 07:36:54;;;;;;;11.45;10.25;;;13.70;58.60;;;;;;5024270;28;20049;-54
2022/05/02 07:39:25;;;;;;;14.00;11.95;;;13.70;58.50;;;;;;5024526;28;20083;-54
2022/05/02 07:41:52;;;;;;;12.90;10.13;;;13.80;58.20;;;;;;5044345;28;20094;-54
2022/05/02 07:44:27;;;;;;;11.88;10.32;;;13.90;58.10;;;;;;5035538;28;20711;-55
2022/05/02 07:46:57;;;;;;;14.25;11.43;;;13.90;58.00;;;;;;5028516;28;20046;-55
2022/05/02 07:49:32;;;;;;;14.30;10.18;;;14.00;58.00;;;;;;5041905;28;20044;-53
2022/05/02 07:52:00;;;;;;;15.73;10.57;;;14.00;57.80;;;;;;5032393;28;20103;-54
2022/05/02 07:54:40;;;;;;;14.10;11.55;;;14.10;57.40;;;;;;5036365;28;20080;-52
2022/05/02 07:57:08;;;;;;;15.10;11.57;;;14.20;57.50;;;;;;5021283;28;20832;-55
2022/05/02 07:59:42;;;;;;;14.10;11.38;;;14.20;57.40;;;;;;5051916;28;20128;-51
2022/05/02 08:02:09;;;;;;;15.02;10.77;;;14.30;57.60;;;;;;5038560;28;20037;-53
2022/05/02 08:04:38;;;;;;;14.55;10.50;;;14.30;57.20;;;;;;5047768;22;20042;-54
2022/05/02 08:07:13;;;;;;;14.32;10.93;;;14.40;56.90;;;;;;5029482;28;20076;-52
2022/05/02 08:09:40;;;;;;;16.77;11.32;;;14.50;56.70;;;;;;5024195;28;20102;-51
2022/05/02 08:12:25;;;;;;;13.40;10.40;;;14.50;56.70;;;;;;5029145;28;20065;-53
2022/05/02 08:15:10;;;;;;;12.27;9.30;;;14.60;56.40;;;;;;5024361;28;20103;-53
2022/05/02 08:17:42;;;;;;;12.48;9.57;;;14.70;56.30;;;;;;5029113;28;20053;-49
2022/05/02 08:20:28;;;;;;;14.45;9.95;;;14.80;56.20;;;;;;5028460;28;20444;-51
2022/05/02 08:29:10;;;;;;;12.05;9.35;;;14.90;55.40;;;;;;5026367;28;20072;-51
2022/05/02 08:31:51;;;;;;;11.48;9.73;;;15.00;55.80;;;;;;5026214;28;20040;-52
2022/05/02 08:34:30;;;;;;;16.55;11.07;;;15.00;55.20;;;;;;5030216;28;20049;-53
2022/05/02 08:37:11;;;;;;;10.23;8.82;;;15.10;55.50;;;;;;5028968;28;20092;-50
2022/05/02 08:40:04;;;;;;;11.07;8.60;;;15.20;55.70;;;;;;5029287;28;20069;-54
2022/05/02 08:43:16;;;;;;;9.82;7.95;;;15.20;54.80;;;;;;5025753;28;20065;-54
2022/05/02 08:46:28;;;;;;;11.10;8.88;;;15.30;54.50;;;;;;5021766;28;20033;-54
2022/05/02 08:49:51;;;;;;;11.52;7.80;;;15.40;54.60;;;;;;5025346;28;20497;-53
2022/05/02 08:52:38;;;;;;;8.55;7.65;;;15.40;53.60;;;;;;5004936;28;20131;-52
2022/05/02 08:55:16;;;;;;;8.15;6.88;;;15.50;54.00;;;;;;5027672;28;20112;-52
2022/05/02 08:58:21;;;;;;;8.57;7.38;;;15.60;53.70;;;;;;5028561;28;20135;-50
2022/05/02 09:01:46;;;;;;;8.35;7.07;;;15.70;54.10;;;;;;5027916;28;20045;-51
2022/05/02 09:04:40;;;;;;;8.38;7.10;;;15.70;53.60;;;;;;4998026;28;20111;-54
2022/05/02 09:07:48;;;;;;;9.23;7.68;;;15.80;53.30;;;;;;5029617;28;20495;-54
2022/05/02 09:10:37;;;;;;;10.30;7.75;;;15.90;53.10;;;;;;5028179;28;20045;-54
2022/05/02 09:13:22;;;;;;;11.15;8.25;;;16.00;53.50;;;;;;5028800;28;20114;-55
2022/05/02 09:16:37;;;;;;;8.20;7.03;;;16.10;53.00;;;;;;5029717;28;20449;-51
2022/05/02 09:19:36;;;;;;;8.98;7.28;;;16.20;53.50;;;;;;5019542;28;20058;-52
2022/05/02 09:22:51;;;;;;;9.00;7.60;;;16.30;52.70;;;;;;5022449;28;20497;-55
2022/05/02 09:25:27;;;;;;;9.93;7.88;;;16.40;52.20;;;;;;5029835;28;20164;-55
2022/05/02 09:27:55;;;;;;;9.30;7.47;;;16.40;51.80;;;;;;5021037;28;20034;-54
2022/05/02 09:30:33;;;;;;;9.35;7.40;;;16.40;51.70;;;;;;5027920;28;20053;-51
2022/05/02 09:33:42;;;;;;;9.00;8.02;;;16.50;51.00;;;;;;5028334;28;20054;-51
2022/05/02 09:36:28;;;;;;;8.63;7.72;;;16.50;51.00;;;;;;5027625;28;20041;-51
2022/05/02 09:39:15;;;;;;;10.43;7.78;;;16.60;51.10;;;;;;5028617;28;20072;-51
2022/05/02 09:42:00;;;;;;;7.93;7.07;;;16.60;51.30;;;;;;5025695;28;20049;-51
2022/05/02 09:51:18;;;;;;;8.55;7.25;;;16.80;49.70;;;;;;5028749;28;20034;-52
2022/05/02 09:57:35;;;;;;;10.23;8.65;;;17.00;50.00;;;;;;4938826;28;20432;-52
2022/05/02 10:03:19;;;;;;;10.43;8.32;;;17.10;50.90;;;;;;5025915;28;20084;-53
2022/05/02 10:06:03;;;;;;;11.05;9.10;;;17.20;50.10;;;;;;5030537;28;20306;-51
2022/05/02 10:08:38;;;;;;;11.10;9.40;;;17.30;49.60;;;;;;5028354;28;20087;-50
2022/05/02 10:11:28;;;;;;;12.45;9.98;;;17.40;50.00;;;;;;5030992;28;20096;-52
2022/05/02 10:14:33;;;;;;;11.65;9.32;;;17.30;49.20;;;;;;5031403;28;20072;-50
2022/05/02 10:17:20;;;;;;;10.93;9.55;;;17.40;49.30;;;;;;5028553;28;20785;-50
2022/05/02 10:20:15;;;;;;;12.25;9.13;;;17.50;48.80;;;;;;5030871;28;20055;-51
2022/05/02 10:22:57;;;;;;;11.43;9.35;;;17.50;48.00;;;;;;5028513;28;20111;-50
2022/05/02 10:25:44;;;;;;;11.75;9.20;;;17.60;48.90;;;;;;5029206;28;20099;-54
2022/05/02 10:28:17;;;;;;;13.85;11.10;;;17.70;47.90;;;;;;5029895;28;20065;-51
2022/05/02 10:30:53;;;;;;;11.48;10.38;;;17.70;47.50;;;;;;5028222;28;20092;-53
2022/05/02 10:33:34;;;;;;;10.65;9.57;;;17.90;48.00;;;;;;5028716;28;20045;-51
2022/05/02 10:36:04;;;;;;;11.93;9.77;;;17.90;48.80;;;;;;5030166;28;20414;-51
2022/05/02 10:38:36;;;;;;;12.25;9.98;;;17.90;48.70;;;;;;5031341;28;20091;-52
2022/05/02 10:41:27;;;;;;;11.00;9.82;;;18.00;48.50;;;;;;5031355;28;20053;-52
2022/05/02 10:44:02;;;;;;;13.27;11.32;;;18.10;48.50;;;;;;5028631;28;20053;-53
2022/05/02 10:46:31;;;;;;;12.55;9.50;;;18.10;47.80;;;;;;5030913;28;20068;-53
2022/05/02 10:49:15;;;;;;;10.35;9.25;;;18.20;47.20;;;;;;5031247;28;20089;-50
2022/05/02 10:52:01;;;;;;;12.25;10.07;;;18.30;47.00;;;;;;5030805;28;20083;-51
2022/05/02 10:55:00;;;;;;;14.30;10.98;;;18.40;46.50;;;;;;5031137;28;20075;-52
2022/05/02 10:57:43;;;;;;;13.20;11.07;;;18.40;47.10;;;;;;5030820;28;20449;-50
2022/05/02 11:00:12;;;;;;;16.15;12.68;;;18.50;46.20;;;;;;5032188;28;20042;-51
2022/05/02 11:03:20;;;;;;;12.05;10.70;;;18.50;47.50;;;;;;5031329;28;20567;-52
2022/05/02 11:06:16;;;;;;;16.48;12.10;;;18.60;47.30;;;;;;5024899;28;20049;-50
2022/05/02 11:08:52;;;;;;;14.18;11.50;;;18.70;48.30;;;;;;5029364;28;20068;-53
2022/05/02 11:11:49;;;;;;;13.00;11.68;;;18.80;47.40;;;;;;5030190;28;20049;-51
2022/05/02 11:14:18;;;;;;;11.50;10.30;;;18.80;46.40;;;;;;5044654;28;20099;-50
2022/05/02 11:17:07;;;;;;;13.82;11.18;;;18.90;46.20;;;;;;5043233;28;20139;-53
2022/05/02 11:22:41;;;;;;;16.08;11.82;;;19.10;46.50;;;;;;5030283;28;20040;-54
2022/05/02 11:25:21;;;;;;;14.63;12.05;;;19.20;46.70;;;;;;5030667;28;20501;-53
2022/05/02 11:28:06;;;;;;;14.77;12.80;;;19.30;45.80;;;;;;5031299;28;20083;-53
2022/05/02 11:30:47;;;;;;;14.50;12.35;;;19.30;46.60;;;;;;5022756;28;20494;-54
2022/05/02 11:33:30;;;;;;;15.38;12.55;;;19.40;45.60;;;;;;5027691;28;20050;-50
2022/05/02 11:36:06;;;;;;;14.25;11.85;;;19.50;45.20;;;;;;5024863;28;20462;-50
2022/05/02 11:38:59;;;;;;;15.70;13.27;;;19.50;45.70;;;;;;5031400;28;20053;-55
2022/05/02 11:41:32;;;;;;;13.73;12.18;;;19.60;45.00;;;;;;5029953;28;20054;-51
2022/05/02 11:44:08;;;;;;;15.75;12.60;;;19.60;45.70;;;;;;5030151;28;20099;-54
2022/05/02 11:46:50;;;;;;;15.07;13.35;;;19.70;44.60;;;;;;5029459;28;20539;-51
2022/05/02 11:49:29;;;;;;;14.77;12.93;;;19.80;44.80;;;;;;5029039;28;20116;-51
2022/05/02 11:52:01;;;;;;;15.07;13.00;;;19.90;45.50;;;;;;5029498;28;20041;-54
2022/05/02 11:54:30;;;;;;;15.10;12.27;;;20.00;45.50;;;;;;5031366;28;20049;-50
2022/05/02 11:57:10;;;;;;;14.02;12.00;;;20.00;44.90;;;;;;5030926;28;20107;-50
2022/05/02 11:59:56;;;;;;;;;;;20.10;44.40;;;;;;5030108;28;20069;-52
2022/05/02 12:02:35;;;;;;;13.95;11.77;;;20.20;45.10;;;;;;5029373;28;19975;-51
2022/05/02 12:05:50;;;;;;;16.23;12.43;;;20.20;44.00;;;;;;5029838;28;20029;-52
2022/05/02 12:08:25;;;;;;;11.70;10.40;;;20.20;45.10;;;;;;5027514;28;20448;-51
2022/05/02 12:11:10;;;;;;;12.27;10.15;;;20.20;44.70;;;;;;5029756;28;20155;-52
2022/05/02 12:13:45;;;;;;;13.15;10.02;;;20.40;45.00;;;;;;5028038;28;20041;-51
2022/05/02 12:16:18;;;;;;;11.88;10.13;;;20.50;44.00;;;;;;5028213;28;20095;-51
2022/05/02 12:18:46;;;;;;;13.50;11.82;;;20.60;44.50;;;;;;5028297;28;20045;-50
2022/05/02 12:21:39;;;;;;;14.50;12.75;;;20.70;44.90;;;;;;5027811;28;20057;-55
2022/05/02 12:24:09;;;;;;;12.50;11.07;;;20.90;43.20;;;;;;5026937;28;20071;-50
2022/05/02 12:26:49;;;;;;;13.48;11.75;;;21.00;42.70;;;;;;5028140;28;20513;-53
2022/05/02 12:29:19;;;;;;;12.25;10.95;;;21.10;42.40;;;;;;5028799;28;20042;-51
2022/05/02 12:32:04;;;;;;;13.32;11.50;;;21.20;42.30;;;;;;5029761;28;20045;-55
2022/05/02 12:34:43;;;;;;;11.25;10.05;;;21.30;40.90;;;;;;5010584;28;20051;-51
2022/05/02 12:37:14;;;;;;;12.55;10.80;;;21.50;41.40;;;;;;5027089;28;20053;-55
2022/05/02 12:39:56;;;;;;;13.68;10.50;;;21.60;42.70;;;;;;5031016;28;20120;-51
2022/05/02 12:42:35;;;;;;;13.80;11.30;;;21.80;41.60;;;;;;5026632;28;20527;-52
2022/05/02 12:45:11;;;;;;;13.10;11.77;;;22.00;42.40;;;;;;5027423;28;20124;-53
2022/05/02 12:48:14;;;;;;;13.68;12.27;;;22.10;41.80;;;;;;5027760;28;20042;-53
2022/05/02 12:50:44;;;;;;;22.70;11.85;;;22.30;40.90;;;;;;5017178;28;20754;-54
2022/05/02 12:56:14;;;;;;;13.70;10.93;;;22.60;40.40;;;;;;5028994;28;20069;-50
2022/05/02 13:01:44;;;;;;;14.30;12.80;;;22.70;39.40;;;;;;5027950;28;20041;-55
2022/05/02 13:04:16;;;;;;;12.38;11.18;;;22.80;38.70;;;;;;5026684;28;20394;-51
2022/05/02 13:06:45;;;;;;;12.43;10.57;;;22.80;39.40;;;;;;5026948;28;20461;-54
2022/05/02 13:09:16;;;;;;;13.20;10.90;;;22.90;39.70;;;;;;5028819;28;20103;-55
2022/05/02 13:11:50;;;;;;;13.38;11.43;;;23.00;38.90;;;;;;5028758;28;20037;-55
2022/05/02 13:14:22;;;;;;;12.60;11.35;;;23.20;39.80;;;;;;5025893;28;20476;-55
2022/05/02 13:16:50;;;;;;;;;;;23.40;39.60;;;;;;5027025;28;20033;-53
2022/05/02 13:19:16;;;;;;;12.52;11.02;;;23.50;40.10;;;;;;4991474;28;21169;-51
2022/05/02 13:21:55;;;;;;;13.38;11.93;;;23.70;38.80;;;;;;5014444;28;20837;-53
2022/05/02 13:24:22;;;;;;;11.10;9.75;;;23.80;37.80;;;;;;5006666;28;20045;-54
2022/05/02 13:27:03;;;;;;;12.25;11.00;;;23.90;39.00;;;;;;5018561;28;20047;-52
2022/05/02 13:29:48;;;;;;;12.20;10.88;;;24.10;38.10;;;;;;5014916;28;20033;-55
2022/05/02 13:32:54;;;;;;;12.50;11.15;;;24.50;38.10;;;;;;5019405;28;20055;-55
2022/05/02 13:35:26;;;;;;;10.23;9.18;;;25.10;37.50;;;;;;5012780;28;20041;-53
2022/05/02 13:38:11;;;;;;;10.35;8.57;;;25.80;38.60;;;;;;5026648;28;20049;-51
2022/05/02 13:41:03;;;;;;;9.25;8.35;;;26.80;38.50;;;;;;5008418;28;20053;-52
2022/05/02 13:44:19;;;;;;;10.00;9.00;;;27.90;36.60;;;;;;5019403;28;20041;-52
2022/05/02 13:46:45;;;;;;;8.98;8.00;;;29.30;36.80;;;;;;5012861;28;20378;-51
2022/05/02 13:49:35;;;;;;;9.40;8.20;;;30.30;36.60;;;;;;5029919;28;20046;-51
2022/05/02 13:52:21;;;;;;;10.57;8.77;;;31.60;34.40;;;;;;5028899;28;20037;-52
2022/05/02 13:54:52;;;;;;;8.27;7.53;;;32.70;32.50;;;;;;5024048;28;20068;-53
2022/05/02 13:57:47;;;;;;;9.80;8.80;;;33.50;31.00;;;;;;5029938;28;20082;-54
2022/05/02 14:01:00;;;;;;;7.85;7.25;;;34.50;31.30;;;;;;5027398;28;20111;-53
2022/05/02 14:06:25;;;;;;;9.23;8.40;;;36.20;28.90;;;;;;5028633;28;20037;-54